Decoded Metar for OIAW (AHWAZ in IRAN) (IATA:AWZ) | Meteo·Mobile Aviation Weather
aviador You're here:

OIAW Decoded Metar

AHWAZ in IRAN
Report Time2019-01-18 13:52:00
UTC Time2019-01-18 14:33:29
Flight Rules lifr LIFR
Wind290° at 06 kt
W.Decomp.*RWY 30: 5.8 kt HW 1.3 kt LCW
W.Rank290° ranks 1
Current wind is below 290° avg. (6.3)
Visibility1500 m
Phenomena:Widespread Dust
Clouds:N/A
Expected CloudBase > 2,000 ft AGL from Temp-Dew spread
CeilingNone
Temp13°C (ISA -2)
Dew Point08°C (72% RH)
AAT10.4°C
QNH1018 hPa
Density Alt-174 ft
Elevation72 ft
Report Wrong Elevation
Raw Report
METAR OIAW 181352Z 29006KT 1500 DU NSC 13/08 Q1018=

Extra information for OIAW:More info

Metar Taf Metar & Taf Last 4 Metars F.Rules Stats Wind Profile Meteogram Temp Stats Airport Information Weather charts Add Link Nearby VenuesMetar ALERT Operation Metar Decoded Social comments